sensor_id;sensor_type;location;lat;lon;timestamp;P1;durP1;ratioP1;P2;durP2;ratioP2
67363;SDS011;54250;45.572;38.086;2024-03-29T00:00:51;34.10;;;9.00;;
67363;SDS011;54250;45.572;38.086;2024-03-29T00:03:17;21.30;;;9.25;;
67363;SDS011;54250;45.572;38.086;2024-03-29T00:05:43;45.90;;;9.25;;
67363;SDS011;54250;45.572;38.086;2024-03-29T00:08:10;30.35;;;9.98;;
67363;SDS011;54250;45.572;38.086;2024-03-29T00:10:36;41.42;;;10.02;;
67363;SDS011;54250;45.572;38.086;2024-03-29T00:13:02;30.88;;;11.15;;
67363;SDS011;54250;45.572;38.086;2024-03-29T00:15:28;41.08;;;13.98;;
67363;SDS011;54250;45.572;38.086;2024-03-29T00:17:54;41.08;;;13.80;;
67363;SDS011;54250;45.572;38.086;2024-03-29T00:20:20;44.50;;;12.00;;
67363;SDS011;54250;45.572;38.086;2024-03-29T00:22:46;37.28;;;12.68;;
67363;SDS011;54250;45.572;38.086;2024-03-29T00:25:12;36.55;;;11.77;;
67363;SDS011;54250;45.572;38.086;2024-03-29T00:27:38;33.72;;;11.13;;
67363;SDS011;54250;45.572;38.086;2024-03-29T00:30:04;27.08;;;10.35;;
67363;SDS011;54250;45.572;38.086;2024-03-29T00:32:31;44.88;;;10.25;;
67363;SDS011;54250;45.572;38.086;2024-03-29T00:34:57;34.38;;;11.15;;
67363;SDS011;54250;45.572;38.086;2024-03-29T00:37:23;32.33;;;9.77;;
67363;SDS011;54250;45.572;38.086;2024-03-29T00:39:49;27.80;;;10.32;;
67363;SDS011;54250;45.572;38.086;2024-03-29T00:42:16;24.90;;;8.55;;
67363;SDS011;54250;45.572;38.086;2024-03-29T00:44:42;23.10;;;7.90;;
67363;SDS011;54250;45.572;38.086;2024-03-29T00:47:08;33.38;;;10.80;;
67363;SDS011;54250;45.572;38.086;2024-03-29T00:49:34;27.63;;;9.25;;
67363;SDS011;54250;45.572;38.086;2024-03-29T00:52:01;33.10;;;8.80;;
67363;SDS011;54250;45.572;38.086;2024-03-29T00:54:29;35.63;;;8.65;;
67363;SDS011;54250;45.572;38.086;2024-03-29T00:56:55;29.08;;;9.20;;
67363;SDS011;54250;45.572;38.086;2024-03-29T00:59:21;20.25;;;7.30;;
67363;SDS011;54250;45.572;38.086;2024-03-29T01:01:49;17.90;;;7.30;;
67363;SDS011;54250;45.572;38.086;2024-03-29T01:04:16;25.90;;;7.88;;
67363;SDS011;54250;45.572;38.086;2024-03-29T01:06:42;23.58;;;7.45;;
67363;SDS011;54250;45.572;38.086;2024-03-29T01:09:08;21.10;;;8.38;;
67363;SDS011;54250;45.572;38.086;2024-03-29T01:11:37;16.58;;;7.47;;
67363;SDS011;54250;45.572;38.086;2024-03-29T01:14:04;20.45;;;7.03;;
67363;SDS011;54250;45.572;38.086;2024-03-29T01:16:30;15.57;;;6.47;;
67363;SDS011;54250;45.572;38.086;2024-03-29T01:18:57;13.73;;;6.40;;
67363;SDS011;54250;45.572;38.086;2024-03-29T01:21:24;15.65;;;6.07;;
67363;SDS011;54250;45.572;38.086;2024-03-29T01:23:51;11.45;;;5.32;;
67363;SDS011;54250;45.572;38.086;2024-03-29T01:26:17;10.90;;;5.03;;
67363;SDS011;54250;45.572;38.086;2024-03-29T01:28:43;28.65;;;5.78;;
67363;SDS011;54250;45.572;38.086;2024-03-29T01:31:09;12.05;;;5.03;;
67363;SDS011;54250;45.572;38.086;2024-03-29T01:33:35;13.73;;;5.45;;
67363;SDS011;54250;45.572;38.086;2024-03-29T01:36:06;15.27;;;5.40;;
67363;SDS011;54250;45.572;38.086;2024-03-29T01:38:33;16.42;;;5.75;;
67363;SDS011;54250;45.572;38.086;2024-03-29T01:40:59;12.35;;;4.95;;
67363;SDS011;54250;45.572;38.086;2024-03-29T01:43:25;15.30;;;5.10;;
67363;SDS011;54250;45.572;38.086;2024-03-29T01:45:53;7.78;;;3.55;;
67363;SDS011;54250;45.572;38.086;2024-03-29T01:48:23;11.15;;;3.15;;
67363;SDS011;54250;45.572;38.086;2024-03-29T01:50:51;9.40;;;3.92;;
67363;SDS011;54250;45.572;38.086;2024-03-29T01:53:20;7.40;;;3.33;;
67363;SDS011;54250;45.572;38.086;2024-03-29T01:55:47;10.18;;;5.13;;
67363;SDS011;54250;45.572;38.086;2024-03-29T01:58:13;9.80;;;4.32;;
67363;SDS011;54250;45.572;38.086;2024-03-29T02:00:59;10.02;;;3.80;;
67363;SDS011;54250;45.572;38.086;2024-03-29T02:03:26;10.18;;;2.83;;
67363;SDS011;54250;45.572;38.086;2024-03-29T02:05:52;6.90;;;3.55;;
67363;SDS011;54250;45.572;38.086;2024-03-29T02:08:21;3.28;;;2.22;;
67363;SDS011;54250;45.572;38.086;2024-03-29T02:10:47;18.00;;;3.25;;
67363;SDS011;54250;45.572;38.086;2024-03-29T02:13:13;9.82;;;3.00;;
67363;SDS011;54250;45.572;38.086;2024-03-29T02:15:40;4.78;;;3.10;;
67363;SDS011;54250;45.572;38.086;2024-03-29T02:18:06;6.00;;;3.25;;
67363;SDS011;54250;45.572;38.086;2024-03-29T02:20:33;11.02;;;3.40;;
67363;SDS011;54250;45.572;38.086;2024-03-29T02:23:11;8.55;;;3.58;;
67363;SDS011;54250;45.572;38.086;2024-03-29T02:25:39;9.52;;;3.20;;
67363;SDS011;54250;45.572;38.086;2024-03-29T02:28:05;7.25;;;3.47;;
67363;SDS011;54250;45.572;38.086;2024-03-29T02:30:31;13.23;;;3.72;;
67363;SDS011;54250;45.572;38.086;2024-03-29T02:33:01;12.90;;;3.30;;
67363;SDS011;54250;45.572;38.086;2024-03-29T02:35:28;4.43;;;2.70;;
67363;SDS011;54250;45.572;38.086;2024-03-29T02:37:54;4.97;;;2.63;;
67363;SDS011;54250;45.572;38.086;2024-03-29T02:40:20;17.92;;;3.20;;
67363;SDS011;54250;45.572;38.086;2024-03-29T02:42:49;10.43;;;3.70;;
67363;SDS011;54250;45.572;38.086;2024-03-29T02:45:16;15.35;;;3.38;;
67363;SDS011;54250;45.572;38.086;2024-03-29T02:47:42;11.95;;;4.13;;
67363;SDS011;54250;45.572;38.086;2024-03-29T02:50:12;11.77;;;4.07;;
67363;SDS011;54250;45.572;38.086;2024-03-29T02:52:39;8.95;;;3.42;;
67363;SDS011;54250;45.572;38.086;2024-03-29T02:55:05;5.90;;;3.22;;
67363;SDS011;54250;45.572;38.086;2024-03-29T02:57:31;21.42;;;5.47;;
67363;SDS011;54250;45.572;38.086;2024-03-29T02:59:57;8.05;;;2.80;;
67363;SDS011;54250;45.572;38.086;2024-03-29T03:02:23;13.32;;;3.63;;
67363;SDS011;54250;45.572;38.086;2024-03-29T03:04:49;12.00;;;3.70;;
67363;SDS011;54250;45.572;38.086;2024-03-29T03:07:15;5.90;;;2.58;;
67363;SDS011;54250;45.572;38.086;2024-03-29T03:09:59;8.57;;;3.08;;
67363;SDS011;54250;45.572;38.086;2024-03-29T03:12:43;12.98;;;2.95;;
67363;SDS011;54250;45.572;38.086;2024-03-29T03:15:09;12.95;;;4.07;;
67363;SDS011;54250;45.572;38.086;2024-03-29T03:17:35;5.90;;;3.28;;
67363;SDS011;54250;45.572;38.086;2024-03-29T03:20:01;5.75;;;3.08;;
67363;SDS011;54250;45.572;38.086;2024-03-29T03:22:30;16.98;;;2.97;;
67363;SDS011;54250;45.572;38.086;2024-03-29T03:24:56;8.93;;;2.70;;
67363;SDS011;54250;45.572;38.086;2024-03-29T03:27:22;2.95;;;1.85;;
67363;SDS011;54250;45.572;38.086;2024-03-29T03:29:49;11.00;;;3.08;;
67363;SDS011;54250;45.572;38.086;2024-03-29T03:32:14;7.68;;;2.63;;
67363;SDS011;54250;45.572;38.086;2024-03-29T03:34:40;17.23;;;2.95;;
67363;SDS011;54250;45.572;38.086;2024-03-29T03:37:06;25.33;;;3.17;;
67363;SDS011;54250;45.572;38.086;2024-03-29T03:39:32;7.30;;;2.90;;
67363;SDS011;54250;45.572;38.086;2024-03-29T03:41:58;11.43;;;2.35;;
67363;SDS011;54250;45.572;38.086;2024-03-29T03:44:24;18.65;;;2.47;;
67363;SDS011;54250;45.572;38.086;2024-03-29T03:46:50;11.30;;;2.75;;
67363;SDS011;54250;45.572;38.086;2024-03-29T03:49:16;24.75;;;7.53;;
67363;SDS011;54250;45.572;38.086;2024-03-29T03:51:42;12.73;;;4.20;;
67363;SDS011;54250;45.572;38.086;2024-03-29T03:54:09;17.65;;;6.50;;
67363;SDS011;54250;45.572;38.086;2024-03-29T03:56:35;22.33;;;6.35;;
67363;SDS011;54250;45.572;38.086;2024-03-29T03:59:01;8.48;;;3.08;;
67363;SDS011;54250;45.572;38.086;2024-03-29T04:01:27;11.38;;;5.40;;
67363;SDS011;54250;45.572;38.086;2024-03-29T04:03:53;21.88;;;5.38;;
67363;SDS011;54250;45.572;38.086;2024-03-29T04:06:19;16.70;;;5.88;;
67363;SDS011;54250;45.572;38.086;2024-03-29T04:08:44;12.52;;;3.88;;
67363;SDS011;54250;45.572;38.086;2024-03-29T04:11:10;7.97;;;3.00;;
67363;SDS011;54250;45.572;38.086;2024-03-29T04:13:36;15.27;;;3.22;;
67363;SDS011;54250;45.572;38.086;2024-03-29T04:16:07;4.68;;;2.00;;
67363;SDS011;54250;45.572;38.086;2024-03-29T04:18:33;22.13;;;2.75;;
67363;SDS011;54250;45.572;38.086;2024-03-29T04:20:59;10.80;;;2.25;;
67363;SDS011;54250;45.572;38.086;2024-03-29T04:23:29;3.33;;;2.00;;
67363;SDS011;54250;45.572;38.086;2024-03-29T04:25:56;6.50;;;1.60;;
67363;SDS011;54250;45.572;38.086;2024-03-29T04:28:23;6.30;;;2.00;;
67363;SDS011;54250;45.572;38.086;2024-03-29T04:30:53;6.88;;;2.05;;
67363;SDS011;54250;45.572;38.086;2024-03-29T04:33:20;11.48;;;2.60;;
67363;SDS011;54250;45.572;38.086;2024-03-29T04:35:59;10.18;;;2.70;;
67363;SDS011;54250;45.572;38.086;2024-03-29T04:38:27;6.80;;;2.38;;
67363;SDS011;54250;45.572;38.086;2024-03-29T04:40:54;7.55;;;2.50;;
67363;SDS011;54250;45.572;38.086;2024-03-29T04:43:27;18.67;;;2.63;;
67363;SDS011;54250;45.572;38.086;2024-03-29T04:46:03;13.73;;;2.20;;
67363;SDS011;54250;45.572;38.086;2024-03-29T04:48:40;4.97;;;2.08;;
67363;SDS011;54250;45.572;38.086;2024-03-29T04:51:07;5.10;;;1.77;;
67363;SDS011;54250;45.572;38.086;2024-03-29T04:53:37;11.25;;;2.40;;
67363;SDS011;54250;45.572;38.086;2024-03-29T04:56:04;5.70;;;2.50;;
67363;SDS011;54250;45.572;38.086;2024-03-29T04:58:30;7.72;;;1.92;;
67363;SDS011;54250;45.572;38.086;2024-03-29T05:00:57;10.38;;;2.47;;
67363;SDS011;54250;45.572;38.086;2024-03-29T05:03:23;5.90;;;2.10;;
67363;SDS011;54250;45.572;38.086;2024-03-29T05:05:49;17.27;;;2.80;;
67363;SDS011;54250;45.572;38.086;2024-03-29T05:08:16;9.60;;;1.70;;
67363;SDS011;54250;45.572;38.086;2024-03-29T05:10:44;3.95;;;1.85;;
67363;SDS011;54250;45.572;38.086;2024-03-29T05:13:10;7.45;;;1.95;;
67363;SDS011;54250;45.572;38.086;2024-03-29T05:15:36;12.07;;;2.22;;
67363;SDS011;54250;45.572;38.086;2024-03-29T05:18:02;7.43;;;2.40;;
67363;SDS011;54250;45.572;38.086;2024-03-29T05:20:28;10.98;;;1.88;;
67363;SDS011;54250;45.572;38.086;2024-03-29T05:22:55;13.95;;;2.75;;
67363;SDS011;54250;45.572;38.086;2024-03-29T05:25:21;10.32;;;2.72;;
67363;SDS011;54250;45.572;38.086;2024-03-29T05:27:49;18.70;;;2.75;;
67363;SDS011;54250;45.572;38.086;2024-03-29T05:30:15;8.45;;;2.25;;
67363;SDS011;54250;45.572;38.086;2024-03-29T05:32:41;11.77;;;1.90;;
67363;SDS011;54250;45.572;38.086;2024-03-29T05:35:08;6.78;;;1.90;;
67363;SDS011;54250;45.572;38.086;2024-03-29T05:37:35;4.07;;;1.98;;
67363;SDS011;54250;45.572;38.086;2024-03-29T05:40:04;6.70;;;1.63;;
67363;SDS011;54250;45.572;38.086;2024-03-29T05:42:32;3.40;;;1.65;;
67363;SDS011;54250;45.572;38.086;2024-03-29T05:45:03;6.05;;;1.67;;
67363;SDS011;54250;45.572;38.086;2024-03-29T05:47:30;7.28;;;1.60;;
67363;SDS011;54250;45.572;38.086;2024-03-29T05:49:56;3.35;;;1.33;;
67363;SDS011;54250;45.572;38.086;2024-03-29T05:52:22;2.42;;;1.23;;
67363;SDS011;54250;45.572;38.086;2024-03-29T05:54:48;6.68;;;2.22;;
67363;SDS011;54250;45.572;38.086;2024-03-29T05:57:15;11.30;;;2.35;;
67363;SDS011;54250;45.572;38.086;2024-03-29T05:59:41;6.45;;;2.03;;
67363;SDS011;54250;45.572;38.086;2024-03-29T06:02:07;7.75;;;2.60;;
67363;SDS011;54250;45.572;38.086;2024-03-29T06:04:33;7.32;;;2.67;;
67363;SDS011;54250;45.572;38.086;2024-03-29T06:07:02;16.20;;;2.95;;
67363;SDS011;54250;45.572;38.086;2024-03-29T06:09:29;8.73;;;2.10;;
67363;SDS011;54250;45.572;38.086;2024-03-29T06:11:55;8.57;;;2.38;;
67363;SDS011;54250;45.572;38.086;2024-03-29T06:14:25;2.92;;;1.63;;
67363;SDS011;54250;45.572;38.086;2024-03-29T06:17:10;4.18;;;1.73;;
67363;SDS011;54250;45.572;38.086;2024-03-29T06:19:55;8.27;;;1.67;;
67363;SDS011;54250;45.572;38.086;2024-03-29T06:22:22;10.18;;;1.90;;
67363;SDS011;54250;45.572;38.086;2024-03-29T06:24:49;3.55;;;1.50;;
67363;SDS011;54250;45.572;38.086;2024-03-29T06:27:19;3.90;;;1.33;;
67363;SDS011;54250;45.572;38.086;2024-03-29T06:29:48;6.40;;;1.30;;
67363;SDS011;54250;45.572;38.086;2024-03-29T06:32:17;6.38;;;2.00;;
67363;SDS011;54250;45.572;38.086;2024-03-29T06:34:46;11.43;;;1.90;;
67363;SDS011;54250;45.572;38.086;2024-03-29T06:37:12;10.68;;;1.67;;
67363;SDS011;54250;45.572;38.086;2024-03-29T06:39:39;8.20;;;1.65;;
67363;SDS011;54250;45.572;38.086;2024-03-29T06:42:05;3.50;;;1.38;;
67363;SDS011;54250;45.572;38.086;2024-03-29T06:44:32;5.78;;;1.90;;
67363;SDS011;54250;45.572;38.086;2024-03-29T06:46:59;6.53;;;2.28;;
67363;SDS011;54250;45.572;38.086;2024-03-29T06:49:25;5.60;;;1.95;;
67363;SDS011;54250;45.572;38.086;2024-03-29T06:51:51;14.38;;;3.08;;
67363;SDS011;54250;45.572;38.086;2024-03-29T06:54:19;14.00;;;2.17;;
67363;SDS011;54250;45.572;38.086;2024-03-29T06:56:48;10.75;;;1.80;;
67363;SDS011;54250;45.572;38.086;2024-03-29T06:59:14;17.33;;;3.95;;
67363;SDS011;54250;45.572;38.086;2024-03-29T07:01:40;35.33;;;2.80;;
67363;SDS011;54250;45.572;38.086;2024-03-29T07:04:06;9.82;;;3.90;;
67363;SDS011;54250;45.572;38.086;2024-03-29T07:06:32;8.25;;;4.10;;
67363;SDS011;54250;45.572;38.086;2024-03-29T07:08:59;20.23;;;6.20;;
67363;SDS011;54250;45.572;38.086;2024-03-29T07:11:25;19.10;;;4.88;;
67363;SDS011;54250;45.572;38.086;2024-03-29T07:13:50;16.70;;;3.80;;
67363;SDS011;54250;45.572;38.086;2024-03-29T07:16:16;19.02;;;3.97;;
67363;SDS011;54250;45.572;38.086;2024-03-29T07:18:42;17.58;;;2.13;;
67363;SDS011;54250;45.572;38.086;2024-03-29T07:21:08;7.90;;;2.65;;
67363;SDS011;54250;45.572;38.086;2024-03-29T07:23:35;4.82;;;1.90;;
67363;SDS011;54250;45.572;38.086;2024-03-29T07:26:01;6.75;;;2.47;;
67363;SDS011;54250;45.572;38.086;2024-03-29T07:28:28;4.57;;;1.55;;
67363;SDS011;54250;45.572;38.086;2024-03-29T07:30:54;11.07;;;1.50;;
67363;SDS011;54250;45.572;38.086;2024-03-29T07:33:22;2.92;;;1.70;;
67363;SDS011;54250;45.572;38.086;2024-03-29T07:35:52;8.43;;;2.13;;
67363;SDS011;54250;45.572;38.086;2024-03-29T07:38:19;4.15;;;1.80;;
67363;SDS011;54250;45.572;38.086;2024-03-29T07:40:48;12.93;;;1.80;;
67363;SDS011;54250;45.572;38.086;2024-03-29T07:43:18;9.18;;;1.55;;
67363;SDS011;54250;45.572;38.086;2024-03-29T07:45:44;6.18;;;1.70;;
67363;SDS011;54250;45.572;38.086;2024-03-29T07:48:11;7.30;;;1.50;;
67363;SDS011;54250;45.572;38.086;2024-03-29T07:50:39;6.57;;;1.60;;
67363;SDS011;54250;45.572;38.086;2024-03-29T07:53:05;9.65;;;1.85;;
67363;SDS011;54250;45.572;38.086;2024-03-29T07:55:31;8.57;;;2.75;;
67363;SDS011;54250;45.572;38.086;2024-03-29T07:57:57;11.43;;;2.75;;
67363;SDS011;54250;45.572;38.086;2024-03-29T08:00:25;14.85;;;4.55;;
67363;SDS011;54250;45.572;38.086;2024-03-29T08:02:51;12.32;;;5.00;;
67363;SDS011;54250;45.572;38.086;2024-03-29T08:05:21;12.32;;;4.97;;
67363;SDS011;54250;45.572;38.086;2024-03-29T08:07:47;9.90;;;2.50;;
67363;SDS011;54250;45.572;38.086;2024-03-29T08:10:13;6.47;;;2.05;;
67363;SDS011;54250;45.572;38.086;2024-03-29T08:12:39;9.73;;;1.70;;
67363;SDS011;54250;45.572;38.086;2024-03-29T08:15:05;15.43;;;1.90;;
67363;SDS011;54250;45.572;38.086;2024-03-29T08:17:31;5.68;;;1.52;;
67363;SDS011;54250;45.572;38.086;2024-03-29T08:19:57;6.70;;;2.03;;
67363;SDS011;54250;45.572;38.086;2024-03-29T08:22:23;2.72;;;1.38;;
67363;SDS011;54250;45.572;38.086;2024-03-29T08:24:49;12.02;;;1.60;;
67363;SDS011;54250;45.572;38.086;2024-03-29T08:27:15;11.55;;;1.60;;
67363;SDS011;54250;45.572;38.086;2024-03-29T08:29:44;11.32;;;1.60;;
67363;SDS011;54250;45.572;38.086;2024-03-29T08:32:10;4.95;;;1.52;;
67363;SDS011;54250;45.572;38.086;2024-03-29T08:34:36;10.00;;;2.47;;
67363;SDS011;54250;45.572;38.086;2024-03-29T08:37:02;6.35;;;1.50;;
67363;SDS011;54250;45.572;38.086;2024-03-29T08:39:29;5.40;;;1.63;;
67363;SDS011;54250;45.572;38.086;2024-03-29T08:41:56;13.52;;;2.50;;
67363;SDS011;54250;45.572;38.086;2024-03-29T08:44:22;8.57;;;2.20;;
67363;SDS011;54250;45.572;38.086;2024-03-29T08:46:50;9.38;;;1.70;;
67363;SDS011;54250;45.572;38.086;2024-03-29T08:49:16;15.93;;;2.13;;
67363;SDS011;54250;45.572;38.086;2024-03-29T08:51:42;8.50;;;2.05;;
67363;SDS011;54250;45.572;38.086;2024-03-29T08:54:08;14.00;;;2.03;;
67363;SDS011;54250;45.572;38.086;2024-03-29T08:56:34;26.90;;;4.47;;
67363;SDS011;54250;45.572;38.086;2024-03-29T08:59:04;18.67;;;6.88;;
67363;SDS011;54250;45.572;38.086;2024-03-29T09:01:33;22.13;;;5.03;;
67363;SDS011;54250;45.572;38.086;2024-03-29T09:04:04;26.23;;;4.50;;
67363;SDS011;54250;45.572;38.086;2024-03-29T09:06:33;9.25;;;2.70;;
67363;SDS011;54250;45.572;38.086;2024-03-29T09:08:59;13.32;;;2.38;;
67363;SDS011;54250;45.572;38.086;2024-03-29T09:11:25;19.40;;;2.67;;
67363;SDS011;54250;45.572;38.086;2024-03-29T09:13:51;13.65;;;2.85;;
67363;SDS011;54250;45.572;38.086;2024-03-29T09:16:19;19.17;;;3.13;;
67363;SDS011;54250;45.572;38.086;2024-03-29T09:18:46;15.77;;;4.38;;
67363;SDS011;54250;45.572;38.086;2024-03-29T09:21:12;26.33;;;4.53;;
67363;SDS011;54250;45.572;38.086;2024-03-29T09:23:38;17.33;;;5.05;;
67363;SDS011;54250;45.572;38.086;2024-03-29T09:26:07;26.45;;;4.32;;
67363;SDS011;54250;45.572;38.086;2024-03-29T09:28:33;17.02;;;4.00;;
67363;SDS011;54250;45.572;38.086;2024-03-29T09:31:01;10.32;;;3.30;;
67363;SDS011;54250;45.572;38.086;2024-03-29T09:33:27;14.25;;;3.30;;
67363;SDS011;54250;45.572;38.086;2024-03-29T09:35:55;16.30;;;3.20;;
67363;SDS011;54250;45.572;38.086;2024-03-29T09:38:24;7.30;;;2.42;;
67363;SDS011;54250;45.572;38.086;2024-03-29T09:40:52;10.07;;;2.05;;
67363;SDS011;54250;45.572;38.086;2024-03-29T09:43:34;10.70;;;2.35;;
67363;SDS011;54250;45.572;38.086;2024-03-29T09:46:00;12.35;;;2.30;;
67363;SDS011;54250;45.572;38.086;2024-03-29T09:48:27;12.35;;;2.95;;
67363;SDS011;54250;45.572;38.086;2024-03-29T09:51:02;9.52;;;1.75;;
67363;SDS011;54250;45.572;38.086;2024-03-29T09:53:31;11.20;;;2.53;;
67363;SDS011;54250;45.572;38.086;2024-03-29T09:56:03;14.60;;;2.50;;
67363;SDS011;54250;45.572;38.086;2024-03-29T09:58:33;11.85;;;2.45;;
67363;SDS011;54250;45.572;38.086;2024-03-29T10:01:00;9.30;;;2.10;;
67363;SDS011;54250;45.572;38.086;2024-03-29T10:03:32;11.85;;;1.90;;
67363;SDS011;54250;45.572;38.086;2024-03-29T10:06:01;10.50;;;1.80;;
67363;SDS011;54250;45.572;38.086;2024-03-29T10:08:28;11.13;;;2.55;;
67363;SDS011;54250;45.572;38.086;2024-03-29T10:10:58;11.00;;;2.65;;
67363;SDS011;54250;45.572;38.086;2024-03-29T10:13:25;13.65;;;2.38;;
67363;SDS011;54250;45.572;38.086;2024-03-29T10:15:55;11.25;;;3.20;;
67363;SDS011;54250;45.572;38.086;2024-03-29T10:18:22;14.35;;;2.50;;
67363;SDS011;54250;45.572;38.086;2024-03-29T10:21:01;4.10;;;2.15;;
67363;SDS011;54250;45.572;38.086;2024-03-29T10:23:27;21.63;;;6.10;;
67363;SDS011;54250;45.572;38.086;2024-03-29T10:25:53;32.47;;;6.63;;
67363;SDS011;54250;45.572;38.086;2024-03-29T10:28:19;12.40;;;3.63;;
67363;SDS011;54250;45.572;38.086;2024-03-29T10:30:45;15.40;;;2.47;;
67363;SDS011;54250;45.572;38.086;2024-03-29T10:33:12;14.45;;;3.40;;
67363;SDS011;54250;45.572;38.086;2024-03-29T10:35:42;13.52;;;3.20;;
67363;SDS011;54250;45.572;38.086;2024-03-29T10:38:11;3.55;;;1.30;;
67363;SDS011;54250;45.572;38.086;2024-03-29T10:40:38;11.68;;;2.22;;
67363;SDS011;54250;45.572;38.086;2024-03-29T10:43:11;13.55;;;2.58;;
67363;SDS011;54250;45.572;38.086;2024-03-29T10:45:44;18.30;;;2.70;;
67363;SDS011;54250;45.572;38.086;2024-03-29T10:48:11;4.60;;;1.67;;
67363;SDS011;54250;45.572;38.086;2024-03-29T10:50:43;10.45;;;2.20;;
67363;SDS011;54250;45.572;38.086;2024-03-29T10:53:11;9.18;;;2.47;;
67363;SDS011;54250;45.572;38.086;2024-03-29T10:55:40;8.07;;;1.98;;
67363;SDS011;54250;45.572;38.086;2024-03-29T10:58:09;11.65;;;2.08;;
67363;SDS011;54250;45.572;38.086;2024-03-29T11:00:37;5.53;;;1.48;;
67363;SDS011;54250;45.572;38.086;2024-03-29T11:05:50;13.55;;;3.22;;
67363;SDS011;54250;45.572;38.086;2024-03-29T11:08:24;14.27;;;2.90;;
67363;SDS011;54250;45.572;38.086;2024-03-29T11:10:57;10.43;;;2.97;;
67363;SDS011;54250;45.572;38.086;2024-03-29T11:16:05;16.70;;;2.35;;
67363;SDS011;54250;45.572;38.086;2024-03-29T11:18:31;11.32;;;2.47;;
67363;SDS011;54250;45.572;38.086;2024-03-29T11:20:57;8.48;;;2.20;;
67363;SDS011;54250;45.572;38.086;2024-03-29T11:23:26;12.27;;;3.38;;
67363;SDS011;54250;45.572;38.086;2024-03-29T11:25:53;12.57;;;3.53;;
67363;SDS011;54250;45.572;38.086;2024-03-29T11:28:27;12.43;;;3.67;;
67363;SDS011;54250;45.572;38.086;2024-03-29T11:31:07;14.75;;;3.30;;
67363;SDS011;54250;45.572;38.086;2024-03-29T11:33:35;8.90;;;2.95;;
67363;SDS011;54250;45.572;38.086;2024-03-29T11:38:48;13.47;;;2.93;;
67363;SDS011;54250;45.572;38.086;2024-03-29T11:43:50;10.77;;;3.10;;
67363;SDS011;54250;45.572;38.086;2024-03-29T11:46:16;11.68;;;2.80;;
67363;SDS011;54250;45.572;38.086;2024-03-29T11:48:43;12.82;;;3.08;;
67363;SDS011;54250;45.572;38.086;2024-03-29T11:51:12;8.02;;;1.70;;
67363;SDS011;54250;45.572;38.086;2024-03-29T11:53:44;9.13;;;2.35;;
67363;SDS011;54250;45.572;38.086;2024-03-29T11:56:10;13.75;;;2.28;;
67363;SDS011;54250;45.572;38.086;2024-03-29T11:58:39;7.95;;;2.78;;
67363;SDS011;54250;45.572;38.086;2024-03-29T12:01:06;18.88;;;2.70;;
67363;SDS011;54250;45.572;38.086;2024-03-29T12:03:39;13.05;;;2.05;;
67363;SDS011;54250;45.572;38.086;2024-03-29T12:06:06;7.70;;;2.42;;
67363;SDS011;54250;45.572;38.086;2024-03-29T12:08:36;10.23;;;2.00;;
67363;SDS011;54250;45.572;38.086;2024-03-29T12:11:04;6.28;;;2.05;;
67363;SDS011;54250;45.572;38.086;2024-03-29T12:13:30;11.85;;;2.40;;
67363;SDS011;54250;45.572;38.086;2024-03-29T12:15:57;10.52;;;1.92;;
67363;SDS011;54250;45.572;38.086;2024-03-29T12:18:24;4.32;;;1.88;;
67363;SDS011;54250;45.572;38.086;2024-03-29T12:20:52;8.93;;;1.52;;
67363;SDS011;54250;45.572;38.086;2024-03-29T12:23:20;9.95;;;2.28;;
67363;SDS011;54250;45.572;38.086;2024-03-29T12:25:47;6.00;;;1.77;;
67363;SDS011;54250;45.572;38.086;2024-03-29T12:28:15;7.78;;;1.83;;
67363;SDS011;54250;45.572;38.086;2024-03-29T12:30:45;3.83;;;1.38;;
67363;SDS011;54250;45.572;38.086;2024-03-29T12:33:13;8.18;;;2.17;;
67363;SDS011;54250;45.572;38.086;2024-03-29T12:35:41;20.60;;;3.40;;
67363;SDS011;54250;45.572;38.086;2024-03-29T12:38:10;10.90;;;2.42;;
67363;SDS011;54250;45.572;38.086;2024-03-29T12:40:37;6.07;;;2.22;;
67363;SDS011;54250;45.572;38.086;2024-03-29T12:43:05;4.47;;;1.42;;
67363;SDS011;54250;45.572;38.086;2024-03-29T12:45:38;7.13;;;1.35;;
67363;SDS011;54250;45.572;38.086;2024-03-29T12:50:39;12.93;;;2.07;;
67363;SDS011;54250;45.572;38.086;2024-03-29T12:53:07;9.32;;;2.03;;
67363;SDS011;54250;45.572;38.086;2024-03-29T12:55:35;14.32;;;1.95;;
67363;SDS011;54250;45.572;38.086;2024-03-29T12:58:04;5.93;;;1.88;;
67363;SDS011;54250;45.572;38.086;2024-03-29T13:00:33;12.18;;;2.38;;
67363;SDS011;54250;45.572;38.086;2024-03-29T13:02:59;12.93;;;2.72;;
67363;SDS011;54250;45.572;38.086;2024-03-29T13:05:26;7.65;;;1.70;;
67363;SDS011;54250;45.572;38.086;2024-03-29T13:07:54;3.20;;;1.15;;
67363;SDS011;54250;45.572;38.086;2024-03-29T13:10:22;15.50;;;2.40;;
67363;SDS011;54250;45.572;38.086;2024-03-29T13:12:48;8.27;;;2.33;;
67363;SDS011;54250;45.572;38.086;2024-03-29T13:15:16;19.10;;;3.40;;
67363;SDS011;54250;45.572;38.086;2024-03-29T13:17:46;5.40;;;2.10;;
67363;SDS011;54250;45.572;38.086;2024-03-29T13:20:13;5.50;;;1.58;;
67363;SDS011;54250;45.572;38.086;2024-03-29T13:22:44;15.38;;;2.95;;
67363;SDS011;54250;45.572;38.086;2024-03-29T13:25:18;19.15;;;2.03;;
67363;SDS011;54250;45.572;38.086;2024-03-29T13:27:45;11.93;;;2.30;;
67363;SDS011;54250;45.572;38.086;2024-03-29T13:30:14;11.45;;;2.38;;
67363;SDS011;54250;45.572;38.086;2024-03-29T13:32:41;16.58;;;2.47;;
67363;SDS011;54250;45.572;38.086;2024-03-29T13:35:11;8.70;;;1.70;;
67363;SDS011;54250;45.572;38.086;2024-03-29T13:37:41;7.07;;;2.88;;
67363;SDS011;54250;45.572;38.086;2024-03-29T13:40:14;13.20;;;2.78;;
67363;SDS011;54250;45.572;38.086;2024-03-29T13:42:41;16.25;;;2.05;;
67363;SDS011;54250;45.572;38.086;2024-03-29T13:45:07;15.95;;;3.40;;
67363;SDS011;54250;45.572;38.086;2024-03-29T13:47:37;15.85;;;3.58;;
67363;SDS011;54250;45.572;38.086;2024-03-29T13:50:08;15.93;;;3.63;;
67363;SDS011;54250;45.572;38.086;2024-03-29T13:52:35;13.23;;;4.07;;
67363;SDS011;54250;45.572;38.086;2024-03-29T13:55:02;9.38;;;3.38;;
67363;SDS011;54250;45.572;38.086;2024-03-29T13:57:29;18.33;;;4.35;;
67363;SDS011;54250;45.572;38.086;2024-03-29T13:59:55;32.72;;;10.68;;
67363;SDS011;54250;45.572;38.086;2024-03-29T14:02:22;52.55;;;17.38;;
67363;SDS011;54250;45.572;38.086;2024-03-29T14:04:49;118.00;;;39.15;;
67363;SDS011;54250;45.572;38.086;2024-03-29T14:07:15;28.75;;;12.00;;
67363;SDS011;54250;45.572;38.086;2024-03-29T14:09:43;87.10;;;34.35;;
67363;SDS011;54250;45.572;38.086;2024-03-29T14:12:10;18.50;;;5.60;;
67363;SDS011;54250;45.572;38.086;2024-03-29T14:14:37;66.85;;;26.33;;
67363;SDS011;54250;45.572;38.086;2024-03-29T14:17:03;173.82;;;68.30;;
67363;SDS011;54250;45.572;38.086;2024-03-29T14:19:31;143.85;;;47.47;;
67363;SDS011;54250;45.572;38.086;2024-03-29T14:22:01;46.17;;;14.20;;
67363;SDS011;54250;45.572;38.086;2024-03-29T14:24:30;68.88;;;18.30;;
67363;SDS011;54250;45.572;38.086;2024-03-29T14:27:01;44.30;;;10.77;;
67363;SDS011;54250;45.572;38.086;2024-03-29T14:29:28;56.83;;;12.68;;
67363;SDS011;54250;45.572;38.086;2024-03-29T14:31:59;31.73;;;10.23;;
67363;SDS011;54250;45.572;38.086;2024-03-29T14:34:26;37.33;;;12.25;;
67363;SDS011;54250;45.572;38.086;2024-03-29T14:36:52;36.10;;;10.27;;
67363;SDS011;54250;45.572;38.086;2024-03-29T14:39:19;27.67;;;8.02;;
67363;SDS011;54250;45.572;38.086;2024-03-29T14:41:46;31.52;;;6.68;;